Time;durP1;ratioP1;P1;durP2;ratioP2;P2;SDS_P1;SDS_P2;PMS_P1;PMS_P2;Temp;Humidity;BMP_temperature;BMP_pressure;BME280_temperature;BME280_humidity;BME280_pressure;Samples;Min_cycle;Max_cycle;Signal;HPM_P1;HPM_P2
2022/02/19 00:02:22;;;;;;;17.70;2.17;;;;;;;5.54;78.81;100334.41;5063270;28;20529;-72
2022/02/19 00:04:47;;;;;;;17.65;3.35;;;;;;;5.53;78.68;100350.88;5059527;28;20465;-71
2022/02/19 00:07:14;;;;;;;16.80;3.05;;;;;;;5.49;78.45;100365.56;5051136;28;20083;-72
2022/02/19 00:09:39;;;;;;;20.63;2.63;;;;;;;5.52;78.86;100378.72;5069482;28;20270;-72
2022/02/19 00:12:05;;;;;;;15.10;2.50;;;;;;;5.51;78.99;100381.28;5057985;28;20527;-71
2022/02/19 00:14:31;;;;;;;9.35;1.92;;;;;;;5.48;78.72;100402.97;5041348;28;20468;-72
2022/02/19 00:16:56;;;;;;;18.40;2.55;;;;;;;5.49;78.00;100394.25;5053771;28;20025;-72
2022/02/19 00:19:21;;;;;;;17.02;2.00;;;;;;;5.53;77.45;100390.03;5061878;28;20060;-72
2022/02/19 00:21:47;;;;;;;12.40;2.25;;;;;;;5.50;77.63;100405.59;5051776;28;20421;-71
2022/02/19 00:24:12;;;;;;;7.68;1.50;;;;;;;5.52;78.70;100416.97;5066027;28;20021;-70
2022/02/19 00:26:37;;;;;;;10.40;2.38;;;;;;;5.53;78.26;100395.25;5071147;28;20457;-71
2022/02/19 00:29:04;;;;;;;7.97;1.77;;;;;;;5.53;79.27;100434.41;5056233;28;20072;-72
2022/02/19 00:31:29;;;;;;;10.65;1.98;;;;;;;5.53;78.48;100432.66;5070208;28;20032;-73
2022/02/19 00:33:55;;;;;;;12.60;2.13;;;;;;;5.51;78.18;100425.66;5051795;28;20029;-72
2022/02/19 00:36:21;;;;;;;10.40;2.20;;;;;;;5.50;77.90;100447.38;5049841;28;20078;-72
2022/02/19 00:38:46;;;;;;;11.15;2.13;;;;;;;5.46;77.52;100450.72;5071786;28;20028;-73
2022/02/19 00:41:12;;;;;;;15.88;2.40;;;;;;;5.45;78.11;100460.25;5075999;28;20495;-73
2022/02/19 00:43:37;;;;;;;10.90;2.88;;;;;;;5.42;76.60;100446.25;5056630;28;20032;-72
2022/02/19 00:46:02;;;;;;;9.70;1.95;;;;;;;5.41;76.53;100442.72;5064842;28;20032;-73
2022/02/19 00:48:28;;;;;;;15.45;2.67;;;;;;;5.38;77.24;100458.28;5063152;28;20040;-73
2022/02/19 00:50:53;;;;;;;10.93;2.35;;;;;;;5.35;76.57;100469.50;5066894;28;20020;-73
2022/02/19 00:53:18;;;;;;;8.55;1.15;;;;;;;5.32;75.40;100465.94;5065283;28;20472;-74
2022/02/19 00:55:44;;;;;;;11.88;1.83;;;;;;;5.31;75.92;100477.22;5059036;28;20532;-73
2022/02/19 00:58:09;;;;;;;10.90;1.95;;;;;;;5.27;76.21;100494.47;5050941;28;20037;-72
2022/02/19 01:00:35;;;;;;;20.40;2.20;;;;;;;5.28;77.23;100498.88;5047342;28;20024;-73
2022/02/19 01:03:00;;;;;;;7.70;1.95;;;;;;;5.31;77.93;100511.13;5072118;28;20064;-72
2022/02/19 01:05:26;;;;;;;15.43;2.13;;;;;;;5.34;77.88;100511.22;5049433;28;20448;-73
2022/02/19 01:07:52;;;;;;;15.80;2.38;;;;;;;5.34;78.56;100519.03;5073311;28;20046;-74
2022/02/19 01:10:18;;;;;;;11.73;1.70;;;;;;;5.35;78.31;100520.81;5065366;28;20393;-74
2022/02/19 01:12:43;;;;;;;14.60;2.92;;;;;;;5.38;77.41;100526.13;5067778;28;20037;-73
2022/02/19 01:15:11;;;;;;;11.98;1.80;;;;;;;5.36;78.30;100536.53;5070258;28;20036;-72
2022/02/19 01:17:37;;;;;;;14.82;2.20;;;;;;;5.39;77.97;100570.53;5064190;28;20020;-73
2022/02/19 01:20:05;;;;;;;9.15;1.65;;;;;;;5.44;76.39;100542.00;5067251;28;20111;-73
2022/02/19 01:22:30;;;;;;;11.55;1.58;;;;;;;5.47;76.31;100551.66;5072217;28;20032;-73
2022/02/19 01:24:55;;;;;;;9.63;1.85;;;;;;;5.48;76.58;100569.06;5070204;28;20028;-73
2022/02/19 01:27:21;;;;;;;17.30;2.83;;;;;;;5.48;76.88;100569.97;5055252;28;20040;-72
2022/02/19 01:29:46;;;;;;;13.60;2.17;;;;;;;5.51;77.06;100569.19;5070527;28;20388;-72
2022/02/19 01:32:12;;;;;;;10.05;2.00;;;;;;;5.53;76.63;100596.19;5066007;28;20039;-73
2022/02/19 01:34:38;;;;;;;15.95;2.55;;;;;;;5.52;77.71;100587.50;5064202;28;20029;-74
2022/02/19 01:37:04;;;;;;;9.80;2.15;;;;;;;5.50;77.36;100598.72;5064989;28;20029;-72
2022/02/19 01:39:30;;;;;;;8.45;1.90;;;;;;;5.50;76.35;100604.81;5049392;28;20055;-73
2022/02/19 01:41:56;;;;;;;13.05;2.35;;;;;;;5.50;76.61;100604.81;5063163;28;20028;-72
2022/02/19 01:44:36;;;;;;;11.85;2.05;;;;;;;5.50;76.95;100609.16;5045786;28;20121;-73
2022/02/19 01:47:03;;;;;;;13.65;2.67;;;;;;;5.46;77.00;100610.78;5068626;28;20079;-72
2022/02/19 01:49:28;;;;;;;19.98;2.10;;;;;;;5.44;76.94;100668.97;5059121;28;20486;-73
2022/02/19 01:51:54;;;;;;;14.98;1.90;;;;;;;5.45;77.05;100635.09;5064573;28;20107;-72
2022/02/19 01:54:20;;;;;;;11.32;1.67;;;;;;;5.40;76.96;100645.38;5061784;28;20032;-73
2022/02/19 01:56:45;;;;;;;14.27;2.00;;;;;;;5.40;76.89;100655.81;5072882;28;20025;-73
2022/02/19 01:59:11;;;;;;;16.83;2.85;;;;;;;5.46;76.68;100651.66;5070779;28;20053;-73
2022/02/19 02:01:36;;;;;;;10.88;1.77;;;;;;;5.46;77.46;100654.25;5065790;28;20024;-73
2022/02/19 02:04:02;;;;;;;12.57;1.88;;;;;;;5.47;77.74;100666.47;5040284;28;20064;-74
2022/02/19 02:06:27;;;;;;;16.23;2.50;;;;;;;5.46;77.84;100676.00;5066225;28;20107;-74
2022/02/19 02:08:54;;;;;;;14.90;1.92;;;;;;;5.45;78.09;100689.00;5068856;28;20119;-73
2022/02/19 02:11:20;;;;;;;15.20;2.22;;;;;;;5.46;78.27;100675.13;5061935;28;20553;-73
2022/02/19 02:13:45;;;;;;;12.65;2.13;;;;;;;5.44;78.27;100692.44;5057716;28;20032;-74
2022/02/19 02:16:11;;;;;;;10.20;1.90;;;;;;;5.42;77.96;100688.91;5045843;28;20025;-72
2022/02/19 02:18:36;;;;;;;12.75;1.92;;;;;;;5.39;78.47;100685.34;5059738;28;20035;-71
2022/02/19 02:21:02;;;;;;;14.40;2.53;;;;;;;5.34;79.25;100706.91;5064283;28;20016;-75
2022/02/19 02:23:27;;;;;;;17.30;2.88;;;;;;;5.33;79.43;100706.03;5052232;28;20107;-73
2022/02/19 02:25:54;;;;;;;21.85;2.45;;;;;;;5.32;79.08;100700.75;5059291;28;20065;-73
2022/02/19 02:28:20;;;;;;;20.52;3.10;;;;;;;5.32;78.90;100735.53;5062058;28;20040;-73
2022/02/19 02:30:47;;;;;;;11.75;2.72;;;;;;;5.33;77.46;100726.91;5068065;28;20058;-73
2022/02/19 02:33:15;;;;;;;16.45;2.88;;;;;;;5.35;77.81;100745.22;5066109;28;20041;-73
2022/02/19 02:35:41;;;;;;;18.95;2.05;;;;;;;5.38;77.22;100720.09;5057530;28;20035;-73
2022/02/19 02:38:08;;;;;;;11.95;2.97;;;;;;;5.36;77.60;100737.44;5058552;28;20033;-73
2022/02/19 02:40:34;;;;;;;21.55;2.15;;;;;;;5.33;78.65;100734.72;5061645;28;20025;-74
2022/02/19 02:42:59;;;;;;;18.35;2.75;;;;;;;5.33;77.91;100732.13;5055414;28;20037;-74
2022/02/19 02:45:25;;;;;;;18.83;2.83;;;;;;;5.32;77.32;100730.31;5052302;28;20452;-74
2022/02/19 02:47:51;;;;;;;15.50;2.15;;;;;;;5.34;77.50;100739.09;5060349;28;20076;-73
2022/02/19 02:50:16;;;;;;;21.75;4.95;;;;;;;5.32;76.07;100751.19;5042296;28;20544;-73
2022/02/19 02:52:42;;;;;;;16.50;1.98;;;;;;;5.33;76.63;100737.34;5069996;28;20028;-72
2022/02/19 02:55:09;;;;;;;16.83;2.58;;;;;;;5.33;75.70;100747.78;5064896;28;20071;-73
2022/02/19 02:57:36;;;;;;;18.85;3.50;;;;;;;5.33;75.87;100758.22;5049185;28;20114;-74
2022/02/19 03:00:06;;;;;;;22.42;2.95;;;;;;;5.34;76.39;100762.56;5065432;28;20414;-74
2022/02/19 03:02:34;;;;;;;15.82;2.45;;;;;;;5.34;75.46;100754.75;5041963;28;20115;-74
2022/02/19 03:05:00;;;;;;;19.45;2.88;;;;;;;5.34;76.37;100759.97;5048939;28;20477;-74
2022/02/19 03:07:26;;;;;;;15.38;2.92;;;;;;;5.34;76.13;100759.09;5072980;28;20407;-74
2022/02/19 03:09:51;;;;;;;14.98;2.03;;;;;;;5.36;75.44;100786.13;5041049;28;20040;-74
2022/02/19 03:12:16;;;;;;;10.55;2.80;;;;;;;5.35;75.37;100760.88;5060668;28;20064;-73
2022/02/19 03:14:42;;;;;;;13.38;3.10;;;;;;;5.30;76.13;100772.84;5071076;28;20063;-73
2022/02/19 03:17:07;;;;;;;19.73;2.13;;;;;;;5.32;75.14;100771.19;5053727;28;20108;-73
2022/02/19 03:19:32;;;;;;;11.00;1.50;;;;;;;5.31;75.49;100775.50;5043982;28;20017;-74
2022/02/19 03:21:58;;;;;;;10.77;2.17;;;;;;;5.29;76.10;100785.00;5059369;28;20024;-73
2022/02/19 03:24:23;;;;;;;8.20;1.38;;;;;;;5.28;75.72;100785.84;5053368;28;20036;-73
2022/02/19 03:26:48;;;;;;;11.25;2.17;;;;;;;5.27;75.83;100794.50;5056521;28;20059;-74
2022/02/19 03:29:14;;;;;;;14.60;2.40;;;;;;;5.25;75.30;100801.38;5051571;28;20029;-73
2022/02/19 03:31:39;;;;;;;16.48;1.90;;;;;;;5.28;75.48;100822.38;5060229;28;20025;-73
2022/02/19 03:34:04;;;;;;;14.10;2.10;;;;;;;5.33;74.74;100814.69;5043651;28;20060;-74
2022/02/19 03:36:30;;;;;;;11.20;2.28;;;;;;;5.34;74.56;100834.75;5065421;28;20032;-74
2022/02/19 03:38:55;;;;;;;14.48;2.75;;;;;;;5.37;74.99;100830.53;5056723;28;20515;-74
2022/02/19 03:41:20;;;;;;;10.27;1.90;;;;;;;5.40;73.78;100822.81;5064034;28;20017;-74
2022/02/19 03:43:46;;;;;;;13.50;1.67;;;;;;;5.38;74.04;100837.50;5060949;28;20040;-73
2022/02/19 03:46:12;;;;;;;8.50;1.90;;;;;;;5.38;74.76;100847.06;5040341;28;20064;-73
2022/02/19 03:48:37;;;;;;;17.25;1.98;;;;;;;5.35;74.09;100852.19;5055339;28;20465;-72
2022/02/19 03:51:05;;;;;;;12.13;2.85;;;;;;;5.36;73.96;100841.81;5058231;28;20025;-73
2022/02/19 03:53:30;;;;;;;13.52;2.55;;;;;;;5.36;72.90;100860.06;5063277;28;20086;-73
2022/02/19 03:55:55;;;;;;;18.73;2.65;;;;;;;5.39;72.55;100859.31;5054238;28;20029;-73
2022/02/19 03:58:21;;;;;;;8.73;1.45;;;;;;;5.43;72.03;100862.94;5062539;28;20017;-74
2022/02/19 04:00:46;;;;;;;7.97;2.30;;;;;;;5.41;73.05;100873.28;5064828;28;20056;-73
2022/02/19 04:03:11;;;;;;;14.43;2.47;;;;;;;5.38;73.50;100881.88;5050296;28;20028;-73
2022/02/19 04:05:37;;;;;;;10.93;2.10;;;;;;;5.41;73.17;100891.53;5053020;28;20029;-73
2022/02/19 04:08:02;;;;;;;14.18;1.92;;;;;;;5.40;74.86;100889.78;5069129;28;20052;-72
2022/02/19 04:10:28;;;;;;;18.30;2.85;;;;;;;5.44;73.83;100903.81;5059307;28;20029;-72
2022/02/19 04:12:53;;;;;;;8.13;1.52;;;;;;;5.42;74.28;100892.44;5053814;28;20111;-72
2022/02/19 04:15:18;;;;;;;14.07;2.75;;;;;;;5.46;74.39;100915.22;5050822;28;20036;-72
2022/02/19 04:17:44;;;;;;;10.05;2.70;;;;;;;5.46;73.99;100925.66;5048297;28;20094;-72
2022/02/19 04:20:09;;;;;;;9.88;1.85;;;;;;;5.46;74.06;100926.53;5039817;28;20024;-73
2022/02/19 04:22:35;;;;;;;13.52;2.40;;;;;;;5.45;73.18;100935.19;5050599;28;20043;-73
2022/02/19 04:25:01;;;;;;;14.55;2.15;;;;;;;5.45;74.24;100926.50;5072551;28;20024;-73
2022/02/19 04:27:27;;;;;;;16.20;3.08;;;;;;;5.47;74.41;100932.66;5049086;28;20383;-73
2022/02/19 04:29:52;;;;;;;10.10;2.50;;;;;;;5.45;72.96;100939.53;5060416;28;20036;-73
2022/02/19 04:32:17;;;;;;;10.35;1.90;;;;;;;5.48;73.13;100934.44;5065121;28;20091;-72
2022/02/19 04:34:43;;;;;;;17.05;3.35;;;;;;;5.43;73.78;100947.31;5063113;28;20155;-72
2022/02/19 04:37:08;;;;;;;11.73;2.70;;;;;;;5.37;73.96;100947.97;5068983;28;20025;-73
2022/02/19 04:39:33;;;;;;;11.75;2.05;;;;;;;5.36;74.35;100948.78;5048538;28;20027;-73
2022/02/19 04:41:59;;;;;;;19.55;2.58;;;;;;;5.32;75.33;100959.06;5063882;28;20037;-73
2022/02/19 04:44:24;;;;;;;8.18;1.52;;;;;;;5.28;75.10;100965.88;5050174;28;20072;-73
2022/02/19 04:46:49;;;;;;;21.63;2.15;;;;;;;5.24;76.07;100983.09;5063375;28;20522;-73
2022/02/19 04:49:15;;;;;;;17.15;2.33;;;;;;;5.22;75.68;100981.25;5055048;28;20060;-73
2022/02/19 04:51:40;;;;;;;21.02;2.28;;;;;;;5.19;75.20;100983.75;5067296;28;20464;-74
2022/02/19 04:54:06;;;;;;;9.65;2.15;;;;;;;5.21;75.67;100982.97;5048330;28;20059;-74
2022/02/19 04:56:32;;;;;;;17.27;2.30;;;;;;;5.22;75.90;100986.47;5054451;28;20017;-73
2022/02/19 04:58:58;;;;;;;18.05;3.42;;;;;;;5.21;76.41;100992.53;5063744;28;20025;-73
2022/02/19 05:01:23;;;;;;;10.43;1.70;;;;;;;5.17;76.91;101001.94;5072391;28;20032;-73
2022/02/19 05:03:49;;;;;;;17.42;3.15;;;;;;;5.18;76.36;101008.03;5057208;28;20119;-73
2022/02/19 05:06:14;;;;;;;17.23;2.58;;;;;;;5.19;75.96;101015.06;5075169;28;20048;-72
2022/02/19 05:08:41;;;;;;;14.90;3.10;;;;;;;5.19;75.89;100999.41;5048851;28;20028;-71
2022/02/19 05:11:06;;;;;;;16.55;2.63;;;;;;;5.19;76.48;101015.94;5050269;28;20020;-72
2022/02/19 05:13:32;;;;;;;10.18;1.70;;;;;;;5.23;76.09;101012.63;5059723;28;20400;-73
2022/02/19 05:15:57;;;;;;;15.52;2.13;;;;;;;5.23;77.04;101006.53;5064179;28;20036;-73
2022/02/19 05:18:22;;;;;;;17.95;2.30;;;;;;;5.24;77.60;101021.34;5071759;28;20024;-73
2022/02/19 05:20:48;;;;;;;12.43;2.60;;;;;;;5.22;77.56;101030.81;5071699;28;20063;-73
2022/02/19 05:23:13;;;;;;;20.55;2.55;;;;;;;5.20;77.93;101033.38;5055870;28;20020;-72
2022/02/19 05:25:40;;;;;;;10.70;2.03;;;;;;;5.21;76.62;101023.84;5064233;28;20029;-72
2022/02/19 05:28:07;;;;;;;13.40;2.30;;;;;;;5.19;76.23;101031.59;5041516;28;20122;-73
2022/02/19 05:30:32;;;;;;;13.65;2.35;;;;;;;5.16;76.69;101026.25;5069005;28;20033;-72
2022/02/19 05:32:57;;;;;;;16.80;2.17;;;;;;;5.14;75.28;101037.44;5044320;28;20029;-72
2022/02/19 05:35:23;;;;;;;10.35;2.20;;;;;;;5.16;75.76;101039.28;5065528;28;20032;-72
2022/02/19 05:37:48;;;;;;;8.75;1.67;;;;;;;5.17;76.56;101032.38;5071803;28;20048;-72
2022/02/19 05:40:14;;;;;;;11.38;2.70;;;;;;;5.19;76.69;101025.47;5049037;28;20020;-72
2022/02/19 05:42:39;;;;;;;8.85;1.35;;;;;;;5.17;76.50;101032.38;5073136;28;20427;-74
2022/02/19 05:45:05;;;;;;;11.20;2.13;;;;;;;5.15;77.85;101047.06;5042219;28;20035;-72
2022/02/19 05:47:30;;;;;;;14.65;3.17;;;;;;;5.12;77.69;101045.22;5037567;28;20048;-73
2022/02/19 05:49:57;;;;;;;14.02;1.73;;;;;;;5.14;77.72;101053.09;5061266;28;20526;-73
2022/02/19 05:52:22;;;;;;;12.68;3.13;;;;;;;5.16;77.19;101052.34;5065192;28;20024;-72
2022/02/19 05:54:48;;;;;;;16.77;2.20;;;;;;;5.17;77.68;101048.03;5063107;28;20032;-73
2022/02/19 05:57:13;;;;;;;20.27;3.60;;;;;;;5.16;77.31;101059.28;5060689;28;20708;-73
2022/02/19 05:59:38;;;;;;;24.45;2.67;;;;;;;5.15;78.08;101062.72;5068057;28;20486;-73
2022/02/19 06:02:04;;;;;;;16.23;1.77;;;;;;;5.11;77.55;101072.09;5066219;28;20033;-73
2022/02/19 06:04:30;;;;;;;13.60;1.77;;;;;;;5.05;78.28;101079.69;5061087;28;20472;-73
2022/02/19 06:06:55;;;;;;;21.67;2.67;;;;;;;5.04;78.75;101070.97;5062910;28;20467;-73
2022/02/19 06:09:21;;;;;;;17.52;2.17;;;;;;;5.05;78.44;101064.03;5063059;28;20078;-71
2022/02/19 06:11:46;;;;;;;11.63;2.25;;;;;;;5.04;78.87;101081.38;5045014;28;20028;-72
2022/02/19 06:14:12;;;;;;;20.15;2.65;;;;;;;5.09;78.51;101072.88;5045735;28;20428;-72
2022/02/19 06:16:38;;;;;;;17.73;2.15;;;;;;;5.08;79.52;101072.00;5044832;28;20033;-73
2022/02/19 06:19:03;;;;;;;14.45;2.63;;;;;;;5.04;80.22;101073.56;5040661;28;20024;-72
2022/02/19 06:21:29;;;;;;;19.90;2.28;;;;;;;5.05;78.72;101083.19;5067932;28;20044;-72
2022/02/19 06:23:54;;;;;;;15.88;2.22;;;;;;;5.10;77.06;101087.69;5036591;28;20111;-72
2022/02/19 06:26:20;;;;;;;16.90;1.98;;;;;;;5.09;77.35;101085.91;5054719;28;20538;-73
2022/02/19 06:28:45;;;;;;;18.40;2.53;;;;;;;5.13;77.46;101093.03;5045757;28;20033;-72
2022/02/19 06:31:10;;;;;;;9.40;2.38;;;;;;;5.11;77.17;101098.19;5048899;28;20032;-73
2022/02/19 06:33:36;;;;;;;8.13;1.52;;;;;;;5.12;77.50;101101.72;5052575;28;20040;-73
2022/02/19 06:36:01;;;;;;;12.05;2.13;;;;;;;5.11;77.80;101098.19;5063348;28;20552;-73
2022/02/19 06:38:26;;;;;;;12.65;1.50;;;;;;;5.11;77.25;101103.41;5059077;28;20503;-73
2022/02/19 06:40:52;;;;;;;9.15;1.65;;;;;;;5.14;76.75;101105.25;5057822;28;20029;-73
2022/02/19 06:43:17;;;;;;;11.07;1.80;;;;;;;5.15;76.94;101122.72;5049516;28;20472;-73
2022/02/19 06:45:42;;;;;;;19.38;2.70;;;;;;;5.18;76.62;101133.25;5051537;28;20476;-72
2022/02/19 06:48:08;;;;;;;10.00;1.65;;;;;;;5.15;76.41;101138.34;5069169;28;20044;-73
2022/02/19 06:50:34;;;;;;;12.98;1.80;;;;;;;5.14;76.78;101131.34;5061233;28;20171;-73
2022/02/19 06:52:59;;;;;;;14.02;2.33;;;;;;;5.13;76.60;101142.59;5072205;28;20563;-72
2022/02/19 06:55:25;;;;;;;11.77;1.65;;;;;;;5.12;75.75;101140.84;5068540;28;20024;-73
2022/02/19 06:57:50;;;;;;;17.13;2.67;;;;;;;5.13;76.78;101147.81;5054031;28;20029;-73
2022/02/19 07:00:17;;;;;;;14.95;2.55;;;;;;;5.12;77.00;101161.72;5065344;28;20027;-73
2022/02/19 07:02:44;;;;;;;13.40;1.85;;;;;;;5.10;77.71;101159.03;5063258;28;20493;-73
2022/02/19 07:05:09;;;;;;;15.57;1.50;;;;;;;5.10;77.10;101165.94;5046691;28;20032;-73
2022/02/19 07:07:35;;;;;;;13.95;1.92;;;;;;;5.08;76.97;101173.72;5062130;28;20085;-74
2022/02/19 07:10:02;;;;;;;14.57;2.30;;;;;;;5.12;76.23;101148.66;5055693;28;20025;-73
2022/02/19 07:12:27;;;;;;;19.35;1.95;;;;;;;5.13;76.08;101167.00;5057527;28;20104;-73
2022/02/19 07:14:53;;;;;;;18.38;2.53;;;;;;;5.15;75.96;101162.72;5067603;28;20103;-72
2022/02/19 07:17:18;;;;;;;19.75;2.83;;;;;;;5.16;76.51;101161.00;5064266;28;20078;-72
2022/02/19 07:19:43;;;;;;;11.90;2.00;;;;;;;5.19;76.22;101168.97;5065554;28;20009;-72
2022/02/19 07:22:09;;;;;;;14.55;2.42;;;;;;;5.20;75.24;101173.38;5060993;28;20115;-73
2022/02/19 07:24:34;;;;;;;9.98;1.67;;;;;;;5.25;74.82;101171.84;5066218;28;20038;-72
2022/02/19 07:27:00;;;;;;;15.80;3.10;;;;;;;5.22;75.20;101177.84;5065453;28;20036;-74
2022/02/19 07:29:25;;;;;;;13.57;1.95;;;;;;;5.26;75.75;101197.09;5060862;28;20533;-73
2022/02/19 07:31:51;;;;;;;12.18;1.85;;;;;;;5.24;75.00;101178.78;5058465;28;20090;-72
2022/02/19 07:34:16;;;;;;;10.98;1.88;;;;;;;5.28;75.76;101181.53;5061124;28;20031;-72
2022/02/19 07:36:42;;;;;;;14.63;3.35;;;;;;;5.30;74.95;101183.34;5052159;28;20052;-72
2022/02/19 07:39:11;;;;;;;9.85;1.83;;;;;;;5.31;74.99;101192.09;5046109;28;20025;-74
2022/02/19 07:41:37;;;;;;;11.57;1.90;;;;;;;5.28;75.43;101184.16;5050920;28;20044;-73
2022/02/19 07:44:03;;;;;;;23.55;2.67;;;;;;;5.26;74.96;101178.84;5067246;28;20486;-72
2022/02/19 07:46:29;;;;;;;9.45;1.92;;;;;;;5.26;75.47;101199.72;5066668;28;20400;-73
2022/02/19 07:48:54;;;;;;;12.85;2.15;;;;;;;5.29;75.65;101209.38;5063619;28;20024;-71
2022/02/19 07:59:31;;;;;;;17.85;2.53;;;;;;;5.30;77.50;101222.50;5070279;28;20044;-76
2022/02/19 08:01:56;;;;;;;12.77;2.38;;;;;;;5.31;76.57;101221.69;5048648;28;20032;-72
2022/02/19 08:04:22;;;;;;;8.80;1.67;;;;;;;5.29;77.03;101225.03;5063988;28;20059;-73
2022/02/19 08:06:47;;;;;;;12.38;2.10;;;;;;;5.36;76.79;101224.50;5046440;28;20036;-73
2022/02/19 08:09:13;;;;;;;12.45;2.53;;;;;;;5.41;76.78;101236.03;5066796;28;20025;-73
2022/02/19 08:11:39;;;;;;;13.75;2.13;;;;;;;5.41;77.43;101241.25;5070887;28;20036;-73
2022/02/19 08:14:04;;;;;;;13.43;2.45;;;;;;;5.47;77.39;101235.41;5074008;28;20043;-73
2022/02/19 08:16:29;;;;;;;17.90;2.45;;;;;;;5.51;77.53;101238.22;5073431;28;20037;-73
2022/02/19 08:18:57;;;;;;;10.95;1.98;;;;;;;5.53;76.90;101247.00;5072932;28;20023;-75
2022/02/19 08:21:23;;;;;;;16.50;2.47;;;;;;;5.53;77.33;101241.78;5063214;28;20032;-73
2022/02/19 08:23:49;;;;;;;9.82;2.25;;;;;;;5.54;77.37;101259.22;5065686;28;20025;-72
2022/02/19 08:26:18;;;;;;;16.13;3.33;;;;;;;5.56;77.46;101262.81;5069871;28;20043;-72
2022/02/19 08:28:44;;;;;;;8.75;1.60;;;;;;;5.60;77.81;101255.97;5069697;28;20452;-73
2022/02/19 08:31:09;;;;;;;14.93;2.00;;;;;;;5.66;76.28;101258.00;5065083;28;20036;-73
2022/02/19 08:33:35;;;;;;;11.80;2.08;;;;;;;5.68;76.35;101261.53;5070734;28;20036;-72
2022/02/19 08:36:00;;;;;;;9.35;1.40;;;;;;;5.72;76.00;101264.38;5067342;28;20111;-74
2022/02/19 08:38:26;;;;;;;12.77;2.03;;;;;;;5.71;75.91;101280.88;5070043;28;20032;-73
2022/02/19 08:40:51;;;;;;;16.63;2.55;;;;;;;5.74;76.44;101275.75;5064961;28;20025;-73
2022/02/19 08:43:16;;;;;;;10.40;2.10;;;;;;;5.76;75.35;101281.03;5064165;28;20036;-72
2022/02/19 08:45:42;;;;;;;11.85;1.90;;;;;;;5.79;76.51;101280.28;5052110;28;20035;-73
2022/02/19 08:48:08;;;;;;;10.93;2.78;;;;;;;5.79;76.24;101264.63;5043966;28;20120;-74
2022/02/19 08:50:37;;;;;;;12.23;2.15;;;;;;;5.83;76.16;101290.03;5070051;28;20021;-72
2022/02/19 08:53:03;;;;;;;14.35;2.55;;;;;;;5.90;76.12;101285.16;5069950;28;20400;-75
2022/02/19 08:55:29;;;;;;;11.05;1.90;;;;;;;6.00;75.33;101291.69;5039035;28;20017;-73
2022/02/19 08:57:55;;;;;;;11.63;2.63;;;;;;;6.05;75.53;101295.41;5052361;28;20033;-72
2022/02/19 09:00:21;;;;;;;13.77;2.05;;;;;;;6.12;74.78;101287.78;5072167;28;20025;-73
2022/02/19 09:02:47;;;;;;;9.15;1.98;;;;;;;6.14;73.65;101294.00;5041191;28;20179;-73
2022/02/19 09:05:14;;;;;;;9.70;1.67;;;;;;;6.16;73.50;101302.78;5067893;28;20025;-74
2022/02/19 09:07:40;;;;;;;8.20;2.22;;;;;;;6.19;73.32;101303.81;5066523;28;20021;-73
2022/02/19 09:10:08;;;;;;;15.77;1.90;;;;;;;6.28;73.66;101303.31;5054416;28;20033;-72
2022/02/19 09:12:33;;;;;;;7.50;1.55;;;;;;;6.32;73.34;101289.53;5057499;28;20105;-72
2022/02/19 09:14:59;;;;;;;9.05;1.88;;;;;;;6.36;73.98;101294.06;5073957;28;20581;-70
2022/02/19 09:17:25;;;;;;;17.67;2.20;;;;;;;6.49;74.02;101302.41;5056513;28;20028;-72
2022/02/19 09:19:50;;;;;;;14.25;2.08;;;;;;;6.57;72.92;101301.88;5074329;28;20522;-73
2022/02/19 09:22:15;;;;;;;14.35;3.28;;;;;;;6.58;72.92;101297.53;5055590;28;20040;-75
2022/02/19 09:24:41;;;;;;;10.48;1.70;;;;;;;6.68;71.68;101304.91;5054988;28;20025;-72
2022/02/19 09:27:06;;;;;;;15.60;2.63;;;;;;;6.84;71.91;101310.75;5069837;28;20033;-75
2022/02/19 09:29:31;;;;;;;12.85;2.00;;;;;;;6.92;71.47;101315.44;5047228;28;20469;-72
2022/02/19 09:31:57;;;;;;;11.63;2.47;;;;;;;6.87;71.50;101310.88;5056894;28;20031;-73
2022/02/19 09:34:23;;;;;;;10.63;1.75;;;;;;;6.82;71.66;101312.41;5074104;28;20078;-72
2022/02/19 09:36:49;;;;;;;8.75;2.25;;;;;;;6.87;71.64;101321.34;5057113;28;20452;-72
2022/02/19 09:39:15;;;;;;;8.07;2.28;;;;;;;6.96;70.15;101307.72;5055084;28;20402;-73
2022/02/19 09:41:43;;;;;;;10.55;2.20;;;;;;;6.90;71.62;101318.84;5056407;28;20094;-74
2022/02/19 09:44:09;;;;;;;16.73;1.83;;;;;;;6.75;72.86;101316.50;5055627;28;20029;-74
2022/02/19 09:46:35;;;;;;;12.77;2.22;;;;;;;6.75;74.12;101327.88;5037075;28;20494;-73
2022/02/19 09:49:03;;;;;;;9.20;1.90;;;;;;;6.70;74.52;101324.19;5055411;28;20464;-73
2022/02/19 09:51:28;;;;;;;9.35;1.83;;;;;;;6.70;74.64;101333.72;5066155;28;20460;-72
2022/02/19 09:53:54;;;;;;;13.45;1.83;;;;;;;6.64;75.40;101339.63;5056335;28;20087;-72
2022/02/19 09:56:21;;;;;;;9.68;2.08;;;;;;;6.66;74.55;101342.28;5045427;28;20428;-72
2022/02/19 09:58:47;;;;;;;15.20;2.08;;;;;;;6.72;74.29;101348.66;5060223;28;20025;-73
2022/02/19 10:01:23;;;;;;;14.00;2.10;;;;;;;6.74;74.52;101339.16;5057993;28;20380;-74
2022/02/19 10:04:03;;;;;;;15.90;1.90;;;;;;;6.64;74.35;101343.97;5054792;28;20025;-73
2022/02/19 10:06:29;;;;;;;17.25;3.90;;;;;;;6.64;74.91;101357.03;5064708;28;20132;-73
2022/02/19 10:09:11;;;;;;;20.00;3.33;;;;;;;6.63;74.97;101371.81;5056106;28;20021;-73
2022/02/19 10:11:38;;;;;;;13.82;2.22;;;;;;;6.81;75.19;101352.47;5061874;28;20032;-73
2022/02/19 10:14:24;;;;;;;5.28;1.58;;;;;;;6.89;75.45;101356.28;5066548;28;20027;-73
2022/02/19 10:17:20;;;;;;;14.02;1.83;;;;;;;6.91;73.90;101365.09;5068454;28;20088;-73
2022/02/19 10:19:50;;;;;;;17.73;2.20;;;;;;;6.96;73.61;101371.41;5064073;28;20016;-74
2022/02/19 10:22:21;;;;;;;11.00;2.08;;;;;;;6.91;73.38;101355.50;5073274;28;20032;-74
2022/02/19 10:24:48;;;;;;;19.35;3.13;;;;;;;6.99;73.55;101373.28;5061241;28;20036;-76
2022/02/19 10:27:15;;;;;;;11.70;1.42;;;;;;;6.94;73.21;101378.28;5061009;28;20028;-77
2022/02/19 10:29:55;;;;;;;25.73;2.30;;;;;;;6.87;73.90;101368.44;5054815;28;20029;-75
2022/02/19 10:32:22;;;;;;;15.50;2.33;;;;;;;6.89;74.11;101385.06;5051888;28;20036;-74
2022/02/19 10:34:59;;;;;;;16.58;2.03;;;;;;;7.15;74.42;101364.28;5050535;28;20032;-71
2022/02/19 10:37:26;;;;;;;16.05;2.55;;;;;;;7.16;73.41;101348.66;5062583;28;20024;-72
2022/02/19 10:39:52;;;;;;;17.23;2.63;;;;;;;7.14;73.66;101336.34;5059476;28;20033;-73
2022/02/19 10:42:17;;;;;;;19.20;2.75;;;;;;;7.16;73.70;101345.13;5063762;28;20594;-73
2022/02/19 10:44:44;;;;;;;14.60;1.77;;;;;;;7.29;74.35;101355.22;5044673;28;20169;-72
2022/02/19 10:47:24;;;;;;;13.43;2.42;;;;;;;7.39;74.10;101360.00;5064583;28;20057;-74
2022/02/19 10:50:08;;;;;;;12.38;1.92;;;;;;;7.66;72.48;101372.31;5060582;28;20346;-74
2022/02/19 10:52:35;;;;;;;17.42;1.85;;;;;;;7.53;71.74;101362.25;5063857;28;20028;-72
2022/02/19 10:55:13;;;;;;;12.07;1.98;;;;;;;7.59;72.52;101363.34;5066988;28;20029;-76
2022/02/19 10:57:43;;;;;;;17.25;2.20;;;;;;;7.32;73.10;101367.56;5054392;28;20134;-75
2022/02/19 11:00:21;;;;;;;13.13;1.98;;;;;;;7.42;71.85;101357.50;5043941;28;20017;-76
2022/02/19 11:02:48;;;;;;;13.10;2.30;;;;;;;7.70;70.89;101368.97;5068816;28;20025;-76
2022/02/19 11:05:16;;;;;;;9.95;1.77;;;;;;;8.05;69.44;101366.72;5055799;28;20468;-75
2022/02/19 11:07:43;;;;;;;12.45;1.90;;;;;;;8.23;69.65;101355.09;5065126;28;20024;-75
2022/02/19 11:10:11;;;;;;;11.07;2.15;;;;;;;8.44;68.75;101353.22;5048602;28;20021;-76
2022/02/19 11:12:37;;;;;;;13.32;1.70;;;;;;;8.88;66.46;101345.03;5061501;28;20061;-75
2022/02/19 11:15:06;;;;;;;9.40;2.08;;;;;;;9.35;65.45;101347.34;5068877;28;20111;-75
2022/02/19 11:17:34;;;;;;;11.55;1.90;;;;;;;9.45;64.35;101353.75;5040591;28;20135;-74
2022/02/19 11:20:04;;;;;;;16.60;2.17;;;;;;;9.71;63.89;101344.00;5065931;28;20035;-76
2022/02/19 11:22:32;;;;;;;10.27;1.90;;;;;;;9.81;62.87;101331.09;5064700;28;20021;-74
2022/02/19 11:24:59;;;;;;;10.20;1.83;;;;;;;9.51;63.04;101332.94;5073079;28;20484;-74
2022/02/19 11:27:32;;;;;;;12.43;1.90;;;;;;;9.50;62.23;101336.38;5069520;28;20025;-73
2022/02/19 11:30:02;;;;;;;12.32;1.75;;;;;;;9.06;61.17;101322.81;5056741;28;20041;-74
2022/02/19 11:32:29;;;;;;;10.70;1.55;;;;;;;9.01;62.03;101333.19;5070714;28;20384;-74